Time;durP1;ratioP1;P1;durP2;ratioP2;P2;SDS_P1;SDS_P2;PMS_P1;PMS_P2;Temp;Humidity;BMP_temperature;BMP_pressure;BME280_temperature;BME280_humidity;BME280_pressure;Samples;Min_cycle;Max_cycle;Signal;HPM_P1;HPM_P2
2021/01/09 00:00:01;;;;;;;8.90;3.30;;;0.40;99.90;;;;;;4987263;28;20081;-90
2021/01/09 00:02:30;;;;;;;10.18;3.60;;;0.40;99.90;;;;;;4973099;28;20042;-92
2021/01/09 00:04:55;;;;;;;13.60;3.30;;;0.40;99.90;;;;;;4970845;28;20039;-93
2021/01/09 00:07:21;;;;;;;7.03;3.33;;;0.20;99.90;;;;;;4971574;28;20049;-94
2021/01/09 00:10:09;;;;;;;5.32;2.78;;;0.20;99.90;;;;;;4972168;28;20545;-93
2021/01/09 00:12:39;;;;;;;8.30;3.20;;;0.20;99.90;;;;;;4956058;28;20054;-92
2021/01/09 00:15:06;;;;;;;9.10;3.65;;;0.10;99.90;;;;;;4970714;28;20043;-93
2021/01/09 00:17:32;;;;;;;8.18;3.85;;;0.10;99.90;;;;;;4972199;28;20070;-93
2021/01/09 00:19:59;;;;;;;6.38;3.78;;;0.00;99.90;;;;;;4971600;28;20067;-93
2021/01/09 00:22:24;;;;;;;5.45;3.90;;;0.00;99.90;;;;;;4968067;28;20055;-92
2021/01/09 00:24:50;;;;;;;6.63;3.05;;;-0.10;99.90;;;;;;4971948;28;20109;-92
2021/01/09 00:27:16;;;;;;;5.32;3.40;;;-0.10;99.90;;;;;;4972124;28;20154;-93
2021/01/09 00:29:43;;;;;;;14.35;4.20;;;-0.10;99.90;;;;;;4967717;28;20039;-90
2021/01/09 00:32:09;;;;;;;9.52;4.35;;;-0.10;99.90;;;;;;4963188;28;20042;-92
2021/01/09 00:34:38;;;;;;;9.15;4.45;;;-0.10;99.90;;;;;;4970772;28;20038;-92
2021/01/09 00:37:25;;;;;;;8.85;4.53;;;-0.10;99.90;;;;;;4971193;28;20195;-91
2021/01/09 00:39:51;;;;;;;12.77;5.05;;;-0.10;99.90;;;;;;4971310;28;20053;-92
2021/01/09 00:42:17;;;;;;;9.98;5.07;;;-0.10;99.90;;;;;;4955126;28;20047;-92
2021/01/09 00:44:43;;;;;;;10.52;4.78;;;-0.10;99.90;;;;;;4954689;28;20042;-93
2021/01/09 00:47:09;;;;;;;12.48;5.05;;;-0.10;99.90;;;;;;4954019;28;20105;-92
2021/01/09 00:49:34;;;;;;;14.80;4.93;;;-0.10;99.90;;;;;;4971806;28;20053;-94
2021/01/09 00:52:00;;;;;;;9.48;4.03;;;-0.10;99.90;;;;;;4970845;28;20051;-94
2021/01/09 00:54:26;;;;;;;15.93;4.57;;;0.00;99.90;;;;;;4970443;28;20038;-91
2021/01/09 00:56:53;;;;;;;16.40;4.50;;;0.10;99.90;;;;;;4969565;28;20974;-91
2021/01/09 00:59:19;;;;;;;14.20;5.53;;;0.00;99.90;;;;;;4967171;28;20053;-92
2021/01/09 01:01:45;;;;;;;23.10;5.57;;;0.00;99.90;;;;;;4968634;28;20043;-92
2021/01/09 01:04:11;;;;;;;11.07;4.20;;;0.00;99.90;;;;;;4970259;28;20086;-93
2021/01/09 01:06:37;;;;;;;7.60;3.65;;;0.00;99.90;;;;;;4971647;28;20042;-92
2021/01/09 01:09:03;;;;;;;12.70;4.07;;;0.00;99.90;;;;;;4953694;28;20053;-92
2021/01/09 01:11:30;;;;;;;9.75;4.47;;;0.10;99.90;;;;;;4971384;28;20130;-91
2021/01/09 01:13:57;;;;;;;12.40;4.13;;;0.10;99.90;;;;;;4965948;28;20047;-92
2021/01/09 01:16:23;;;;;;;12.65;4.30;;;0.20;99.90;;;;;;4984473;28;20050;-92
2021/01/09 01:18:50;;;;;;;11.23;4.47;;;0.10;99.90;;;;;;4969356;28;20061;-90
2021/01/09 01:21:16;;;;;;;10.57;3.88;;;0.10;99.90;;;;;;4970005;28;20042;-90
2021/01/09 01:23:42;;;;;;;8.93;3.58;;;0.10;99.90;;;;;;4954430;28;20054;-94
2021/01/09 01:26:10;;;;;;;5.07;3.28;;;0.10;99.90;;;;;;4950533;28;20066;-92
2021/01/09 01:28:36;;;;;;;7.80;3.42;;;0.20;99.90;;;;;;4971538;28;20081;-93
2021/01/09 01:31:02;;;;;;;10.98;3.10;;;0.20;99.90;;;;;;4984833;28;20046;-92
2021/01/09 01:33:27;;;;;;;7.28;2.65;;;0.10;99.90;;;;;;4970614;28;20049;-92
2021/01/09 01:35:53;;;;;;;4.38;2.60;;;0.10;99.90;;;;;;4952945;28;20035;-94
2021/01/09 01:38:20;;;;;;;21.80;3.22;;;0.10;99.90;;;;;;4969304;28;20038;-94
2021/01/09 01:40:45;;;;;;;12.10;3.25;;;0.10;99.90;;;;;;4937901;28;20101;-93
2021/01/09 01:43:15;;;;;;;17.42;3.72;;;0.10;99.90;;;;;;4953155;28;20049;-92
2021/01/09 01:45:42;;;;;;;10.35;3.38;;;0.20;99.90;;;;;;4969815;28;20043;-92
2021/01/09 01:48:09;;;;;;;7.45;3.03;;;0.20;99.90;;;;;;4953046;28;20766;-93
2021/01/09 01:50:38;;;;;;;6.45;3.15;;;0.20;99.90;;;;;;4954042;28;20129;-93
2021/01/09 01:53:05;;;;;;;9.20;3.28;;;0.20;99.90;;;;;;4969521;28;20047;-92
2021/01/09 01:55:32;;;;;;;15.35;3.35;;;0.30;99.90;;;;;;4967634;28;20480;-92
2021/01/09 01:57:57;;;;;;;11.90;4.28;;;0.30;99.90;;;;;;4969944;28;20400;-92
2021/01/09 02:00:30;;;;;;;12.80;3.58;;;0.40;99.90;;;;;;4969192;28;20053;-91
2021/01/09 02:02:57;;;;;;;8.75;3.70;;;0.50;99.90;;;;;;4969420;28;20043;-92
2021/01/09 02:05:25;;;;;;;17.52;4.13;;;0.50;99.90;;;;;;4969261;28;20086;-93
2021/01/09 02:07:55;;;;;;;13.57;3.83;;;0.60;99.90;;;;;;4970997;28;20053;-91
2021/01/09 02:10:23;;;;;;;9.95;4.10;;;0.70;99.90;;;;;;4969788;28;20092;-92
2021/01/09 02:13:02;;;;;;;12.45;3.45;;;0.70;99.90;;;;;;4969492;28;20170;-92
2021/01/09 02:15:29;;;;;;;8.68;3.63;;;0.60;99.90;;;;;;4970360;28;20444;-94
2021/01/09 02:17:56;;;;;;;10.55;3.50;;;0.60;99.90;;;;;;4965570;28;20051;-90
2021/01/09 02:20:23;;;;;;;8.88;3.38;;;0.60;99.90;;;;;;4951038;28;20074;-93
2021/01/09 02:22:54;;;;;;;9.45;2.83;;;0.60;99.90;;;;;;4983629;28;20046;-94
2021/01/09 02:25:20;;;;;;;15.25;4.03;;;0.60;99.90;;;;;;4969992;28;20097;-94
2021/01/09 02:27:45;;;;;;;10.77;3.85;;;0.70;99.90;;;;;;4969782;28;20043;-94
2021/01/09 02:30:14;;;;;;;10.73;4.10;;;0.70;99.90;;;;;;4953459;28;20074;-93
2021/01/09 02:33:01;;;;;;;13.88;3.63;;;0.70;99.90;;;;;;4955069;28;20527;-93
2021/01/09 02:35:28;;;;;;;12.13;3.63;;;0.70;99.90;;;;;;4970731;28;20041;-91
2021/01/09 02:37:55;;;;;;;8.48;2.28;;;0.80;99.90;;;;;;4983611;28;20059;-91
2021/01/09 02:40:21;;;;;;;5.43;2.70;;;0.90;99.90;;;;;;4979047;28;20050;-92
2021/01/09 02:42:47;;;;;;;5.40;2.63;;;0.90;99.90;;;;;;4964612;28;20047;-93
2021/01/09 02:45:14;;;;;;;5.80;3.00;;;1.00;99.90;;;;;;4968945;28;20173;-92
2021/01/09 02:47:40;;;;;;;8.90;3.25;;;1.00;99.90;;;;;;4938632;28;20050;-94
2021/01/09 02:50:12;;;;;;;5.57;2.05;;;1.10;99.90;;;;;;4969360;28;20057;-93
2021/01/09 02:52:39;;;;;;;7.25;2.47;;;1.10;99.90;;;;;;4970897;28;20043;-92
2021/01/09 02:55:06;;;;;;;19.88;4.97;;;1.20;99.90;;;;;;4953836;28;20051;-93
2021/01/09 02:57:32;;;;;;;9.45;2.88;;;1.20;99.90;;;;;;4970488;28;20571;-95
2021/01/09 02:59:58;;;;;;;12.93;3.30;;;1.20;99.90;;;;;;4953459;28;20074;-92
2021/01/09 03:02:24;;;;;;;6.93;2.38;;;1.20;99.90;;;;;;4971052;28;20481;-93
2021/01/09 03:04:50;;;;;;;8.52;3.15;;;1.20;99.90;;;;;;4986183;28;20050;-93
2021/01/09 03:07:15;;;;;;;8.15;2.33;;;1.20;99.90;;;;;;4922034;28;20061;-94
2021/01/09 03:09:41;;;;;;;4.05;1.85;;;1.10;99.90;;;;;;4966493;28;20382;-95
2021/01/09 03:12:07;;;;;;;6.88;2.55;;;1.10;99.90;;;;;;4963046;28;20497;-92
2021/01/09 03:14:33;;;;;;;3.90;2.28;;;1.20;99.90;;;;;;4970573;28;20050;-91
2021/01/09 03:16:59;;;;;;;3.58;2.78;;;1.20;99.90;;;;;;4969779;28;20114;-92
2021/01/09 03:19:25;;;;;;;8.10;2.90;;;1.20;99.90;;;;;;4951998;28;20481;-92
2021/01/09 03:21:52;;;;;;;11.48;2.92;;;1.20;99.90;;;;;;4973097;28;20069;-91
2021/01/09 03:24:19;;;;;;;6.05;2.72;;;1.10;99.90;;;;;;4976694;28;20427;-91
2021/01/09 03:26:44;;;;;;;7.68;2.50;;;1.20;99.90;;;;;;4989801;28;20074;-92
2021/01/09 03:29:10;;;;;;;5.35;2.42;;;1.10;99.90;;;;;;4972855;28;20500;-92
2021/01/09 03:31:36;;;;;;;7.72;1.80;;;1.10;99.90;;;;;;4973659;28;20419;-92
2021/01/09 03:34:02;;;;;;;10.50;2.40;;;1.10;99.90;;;;;;4969920;28;20055;-92
2021/01/09 03:36:27;;;;;;;3.78;1.60;;;1.10;99.90;;;;;;4983718;28;20063;-91
2021/01/09 03:38:53;;;;;;;3.00;1.73;;;1.20;99.90;;;;;;4973129;28;20138;-90
2021/01/09 03:41:19;;;;;;;4.50;1.95;;;1.20;99.90;;;;;;4950890;28;20035;-92
2021/01/09 03:43:45;;;;;;;4.43;1.80;;;1.20;99.90;;;;;;4967072;28;20489;-89
2021/01/09 03:46:11;;;;;;;3.25;1.95;;;1.20;99.90;;;;;;4968094;28;20043;-92
2021/01/09 03:48:36;;;;;;;6.07;2.10;;;1.20;99.90;;;;;;4983838;28;20066;-91
2021/01/09 03:51:03;;;;;;;2.85;1.60;;;1.30;99.90;;;;;;4973075;28;20043;-92
2021/01/09 03:53:28;;;;;;;10.50;1.88;;;1.20;99.90;;;;;;4975887;28;20381;-91
2021/01/09 03:55:54;;;;;;;6.55;1.73;;;1.30;99.90;;;;;;4972728;28;20045;-90
2021/01/09 03:58:20;;;;;;;4.65;1.80;;;1.10;99.90;;;;;;4973830;28;20050;-91
2021/01/09 04:00:45;;;;;;;3.40;1.50;;;1.20;99.90;;;;;;4972463;28;20403;-91
2021/01/09 04:03:11;;;;;;;7.55;1.75;;;1.10;99.90;;;;;;4972425;28;20047;-92
2021/01/09 04:05:37;;;;;;;8.48;2.30;;;1.10;99.90;;;;;;4972925;28;20039;-91
2021/01/09 04:08:06;;;;;;;4.45;2.20;;;1.10;99.90;;;;;;4972624;28;20043;-92
2021/01/09 04:10:32;;;;;;;6.57;2.13;;;1.10;99.90;;;;;;4989721;28;20081;-91
2021/01/09 04:12:58;;;;;;;4.53;2.20;;;1.10;99.90;;;;;;4956441;28;20047;-92
2021/01/09 04:15:24;;;;;;;7.55;2.40;;;1.10;99.90;;;;;;4988137;28;20123;-91
2021/01/09 04:17:50;;;;;;;7.68;2.05;;;1.10;99.90;;;;;;4971908;28;20051;-91
2021/01/09 04:20:16;;;;;;;9.07;1.92;;;1.00;99.90;;;;;;4972905;28;20050;-91
2021/01/09 04:22:41;;;;;;;2.72;1.77;;;1.10;99.90;;;;;;4973372;28;20126;-91
2021/01/09 04:25:08;;;;;;;10.55;2.30;;;1.10;99.90;;;;;;4939640;28;20142;-92
2021/01/09 04:27:34;;;;;;;7.20;1.88;;;1.10;99.90;;;;;;4970010;28;20047;-90
2021/01/09 04:30:00;;;;;;;5.20;2.05;;;1.10;99.90;;;;;;4972108;28;20614;-92
2021/01/09 04:32:26;;;;;;;6.07;2.22;;;1.00;99.90;;;;;;4972878;28;20070;-91
2021/01/09 04:34:51;;;;;;;4.55;2.35;;;1.10;99.90;;;;;;4972723;28;20493;-91
2021/01/09 04:37:17;;;;;;;12.85;2.53;;;1.00;99.90;;;;;;4955224;28;20062;-92
2021/01/09 04:39:43;;;;;;;4.53;2.50;;;1.10;99.90;;;;;;4988193;28;20130;-91
2021/01/09 04:42:09;;;;;;;5.45;2.63;;;1.10;99.90;;;;;;4971275;28;20055;-91
2021/01/09 04:44:37;;;;;;;3.85;2.40;;;1.10;99.90;;;;;;4968813;28;20047;-91
2021/01/09 04:47:03;;;;;;;3.08;2.30;;;1.10;99.90;;;;;;4987616;28;20046;-90
2021/01/09 04:49:32;;;;;;;7.35;2.33;;;1.10;99.90;;;;;;4971594;28;20110;-91
2021/01/09 04:51:59;;;;;;;3.13;2.30;;;1.10;99.90;;;;;;4972147;28;20042;-92
2021/01/09 04:54:25;;;;;;;4.93;2.33;;;1.00;99.90;;;;;;4970099;28;20082;-91
2021/01/09 04:56:55;;;;;;;6.05;2.20;;;1.00;99.90;;;;;;4954259;28;20047;-91
2021/01/09 04:59:23;;;;;;;5.28;2.67;;;1.10;99.90;;;;;;4971338;28;20081;-91
2021/01/09 05:01:51;;;;;;;8.52;2.85;;;1.10;99.90;;;;;;4970831;28;20065;-92
2021/01/09 05:04:19;;;;;;;5.00;2.58;;;1.10;99.90;;;;;;4970783;28;20093;-92
2021/01/09 05:06:46;;;;;;;6.93;2.80;;;1.10;99.90;;;;;;4971229;28;20057;-92
2021/01/09 05:09:14;;;;;;;3.65;2.42;;;1.00;99.90;;;;;;4971972;28;20035;-93
2021/01/09 05:11:41;;;;;;;5.53;3.33;;;1.00;99.90;;;;;;4972775;28;20090;-92
2021/01/09 05:14:08;;;;;;;4.43;2.78;;;1.10;99.90;;;;;;4955929;28;20042;-93
2021/01/09 05:16:35;;;;;;;7.45;2.70;;;1.00;99.90;;;;;;4968108;28;20370;-93
2021/01/09 05:19:03;;;;;;;9.10;2.97;;;1.10;99.90;;;;;;4982514;28;20500;-92
2021/01/09 05:21:30;;;;;;;7.00;2.20;;;1.10;99.90;;;;;;4970956;28;20047;-92
2021/01/09 05:23:58;;;;;;;6.25;2.20;;;1.10;99.90;;;;;;4971269;28;20070;-92
2021/01/09 05:26:24;;;;;;;5.13;2.65;;;1.10;99.90;;;;;;4985737;28;20422;-92
2021/01/09 05:28:56;;;;;;;3.78;3.05;;;1.00;99.90;;;;;;4970373;28;20051;-93
2021/01/09 05:31:24;;;;;;;9.93;4.88;;;1.00;99.90;;;;;;4970666;28;20046;-93
2021/01/09 05:33:50;;;;;;;10.75;6.65;;;1.00;99.90;;;;;;4971426;28;20035;-92
2021/01/09 05:36:17;;;;;;;15.07;7.65;;;0.90;99.90;;;;;;4968071;28;20521;-90
2021/01/09 05:38:44;;;;;;;17.63;5.95;;;1.00;99.90;;;;;;4979267;28;20046;-93
2021/01/09 05:41:15;;;;;;;8.90;5.55;;;1.00;99.90;;;;;;4972077;28;20511;-92
2021/01/09 05:43:42;;;;;;;11.63;5.10;;;1.00;99.90;;;;;;4978012;28;20050;-91
2021/01/09 05:46:08;;;;;;;12.35;4.72;;;1.00;99.90;;;;;;4977071;28;20245;-90
2021/01/09 05:48:36;;;;;;;10.63;4.90;;;1.00;99.90;;;;;;4968841;28;20405;-93
2021/01/09 05:51:06;;;;;;;9.73;4.28;;;1.00;99.90;;;;;;4970974;28;20066;-90
2021/01/09 05:53:41;;;;;;;11.38;4.15;;;1.00;99.90;;;;;;4968829;28;20101;-91
2021/01/09 05:56:09;;;;;;;14.32;4.53;;;1.00;99.90;;;;;;4968779;28;20472;-91
2021/01/09 05:58:35;;;;;;;13.15;4.28;;;1.00;99.90;;;;;;4968975;28;20449;-91
2021/01/09 06:01:08;;;;;;;10.27;4.28;;;1.00;99.90;;;;;;4969876;28;20055;-90
2021/01/09 06:03:38;;;;;;;8.45;4.53;;;1.00;99.90;;;;;;4969016;28;20041;-91
2021/01/09 06:06:45;;;;;;;5.88;4.68;;;1.00;99.90;;;;;;4953676;28;20481;-92
2021/01/09 06:09:18;;;;;;;9.52;4.85;;;1.00;99.90;;;;;;4876420;29;20051;-92
2021/01/09 06:11:44;;;;;;;9.90;5.22;;;0.90;99.90;;;;;;4958130;28;20046;-91
2021/01/09 06:14:14;;;;;;;11.07;5.10;;;1.00;99.90;;;;;;4969277;28;20050;-91
2021/01/09 06:16:42;;;;;;;8.45;4.40;;;1.00;99.90;;;;;;4969039;28;20137;-91
2021/01/09 06:19:09;;;;;;;7.15;4.20;;;1.00;99.90;;;;;;4953168;28;20128;-92
2021/01/09 06:21:36;;;;;;;5.05;3.30;;;1.00;99.90;;;;;;4970140;28;20039;-91
2021/01/09 06:24:05;;;;;;;5.25;3.13;;;1.00;99.90;;;;;;4969272;28;20492;-92
2021/01/09 06:26:32;;;;;;;9.32;3.60;;;1.00;99.90;;;;;;4969234;28;20411;-91
2021/01/09 06:29:23;;;;;;;6.05;3.55;;;0.90;99.90;;;;;;4970931;28;20082;-92
2021/01/09 06:31:53;;;;;;;5.50;3.25;;;0.90;99.90;;;;;;4963238;28;20146;-92
2021/01/09 06:34:23;;;;;;;9.73;3.53;;;0.90;99.90;;;;;;4970721;28;20106;-92
2021/01/09 06:37:00;;;;;;;12.43;3.42;;;0.90;99.90;;;;;;4970885;28;20421;-91
2021/01/09 06:39:30;;;;;;;4.00;3.17;;;0.90;99.90;;;;;;4970467;28;20042;-92
2021/01/09 06:41:58;;;;;;;6.30;3.00;;;0.90;99.90;;;;;;4971583;28;20133;-91
2021/01/09 06:44:24;;;;;;;6.40;3.75;;;0.80;99.90;;;;;;4968636;28;20058;-92
2021/01/09 06:46:54;;;;;;;8.45;3.53;;;0.80;99.90;;;;;;4970768;28;20087;-92
2021/01/09 06:49:25;;;;;;;5.82;3.35;;;0.80;99.90;;;;;;4953834;28;20474;-92
2021/01/09 06:52:02;;;;;;;10.88;3.38;;;0.70;99.90;;;;;;4970494;28;20493;-92
2021/01/09 06:54:37;;;;;;;9.38;3.38;;;0.70;99.90;;;;;;4971568;28;20042;-92
2021/01/09 06:57:03;;;;;;;12.45;4.40;;;0.60;99.90;;;;;;4987146;28;20481;-92
2021/01/09 06:59:42;;;;;;;6.40;4.13;;;0.60;99.90;;;;;;4974211;28;20057;-91
2021/01/09 07:02:27;;;;;;;6.97;3.53;;;0.60;99.90;;;;;;4974672;28;20051;-92
2021/01/09 07:04:55;;;;;;;4.57;3.47;;;0.50;99.90;;;;;;4973292;28;20042;-91
2021/01/09 07:07:56;;;;;;;7.03;4.35;;;0.50;99.90;;;;;;4959593;28;20042;-91
2021/01/09 07:10:27;;;;;;;19.70;7.95;;;0.50;99.90;;;;;;4973581;28;20121;-91
2021/01/09 07:13:04;;;;;;;9.50;3.22;;;0.50;99.90;;;;;;4972941;28;20057;-91
2021/01/09 07:15:34;;;;;;;8.70;3.47;;;0.50;99.90;;;;;;4972419;28;20751;-91
2021/01/09 07:18:03;;;;;;;10.80;4.45;;;0.50;99.90;;;;;;4973484;28;20038;-92
2021/01/09 07:20:41;;;;;;;5.32;2.92;;;0.50;99.90;;;;;;4972242;28;20051;-91
2021/01/09 07:23:14;;;;;;;12.98;5.07;;;0.50;99.90;;;;;;4959944;28;20058;-91
2021/01/09 07:25:47;;;;;;;16.85;4.97;;;0.50;99.90;;;;;;4972264;28;20060;-91
2021/01/09 07:28:16;;;;;;;19.75;5.40;;;0.50;99.90;;;;;;4959796;28;20507;-91
2021/01/09 07:30:42;;;;;;;7.55;4.43;;;0.50;99.90;;;;;;4956731;28;20240;-93
2021/01/09 07:33:13;;;;;;;8.88;4.65;;;0.60;99.90;;;;;;4974356;28;20097;-91
2021/01/09 07:35:41;;;;;;;14.07;4.32;;;0.70;99.90;;;;;;4988359;28;20105;-91
2021/01/09 07:38:08;;;;;;;7.88;3.17;;;0.60;99.90;;;;;;5001880;28;20054;-90
2021/01/09 07:40:46;;;;;;;7.55;3.00;;;0.50;99.90;;;;;;4988087;28;20042;-91
2021/01/09 07:43:46;;;;;;;11.15;4.32;;;0.40;99.90;;;;;;4973120;28;20050;-90
2021/01/09 07:46:28;;;;;;;11.98;4.07;;;0.30;99.90;;;;;;4972209;28;20043;-92
2021/01/09 07:48:58;;;;;;;7.15;3.60;;;0.30;99.90;;;;;;4973071;28;20100;-90
2021/01/09 07:51:53;;;;;;;10.80;4.47;;;0.20;99.90;;;;;;4972586;28;20089;-91
2021/01/09 07:54:43;;;;;;;10.15;4.55;;;0.10;99.90;;;;;;4989565;28;20050;-91
2021/01/09 07:57:18;;;;;;;10.93;4.00;;;0.30;99.90;;;;;;4956908;28;20051;-90
2021/01/09 08:00:06;;;;;;;12.10;5.22;;;0.10;99.90;;;;;;4996055;28;20049;-91
2021/01/09 08:02:35;;;;;;;10.02;3.70;;;0.20;99.90;;;;;;4973692;28;20047;-91
2021/01/09 08:05:05;;;;;;;8.02;4.47;;;0.10;99.90;;;;;;4979321;28;20050;-91
2021/01/09 08:07:36;;;;;;;9.35;4.28;;;0.10;99.90;;;;;;4960058;28;20050;-91
2021/01/09 08:10:12;;;;;;;11.25;4.90;;;0.00;99.90;;;;;;4976067;28;20047;-91
2021/01/09 08:12:38;;;;;;;20.75;5.10;;;0.10;99.90;;;;;;4973069;28;20400;-90
2021/01/09 08:15:05;;;;;;;9.93;4.85;;;0.10;99.90;;;;;;4975483;28;20047;-91
2021/01/09 08:17:31;;;;;;;13.55;5.03;;;0.10;99.90;;;;;;4968816;28;20047;-93
2021/01/09 08:20:05;;;;;;;10.38;4.80;;;0.30;99.90;;;;;;4976809;28;20054;-92
2021/01/09 08:22:30;;;;;;;8.00;3.63;;;0.20;99.90;;;;;;4973293;28;20047;-91
2021/01/09 08:25:12;;;;;;;13.27;5.22;;;0.30;99.90;;;;;;4973934;28;20054;-90
2021/01/09 08:27:45;;;;;;;13.05;4.45;;;0.20;99.90;;;;;;4971483;28;20117;-90
2021/01/09 08:30:14;;;;;;;13.55;4.85;;;0.20;99.90;;;;;;4974042;28;20114;-90
2021/01/09 08:32:40;;;;;;;9.65;4.82;;;0.20;99.90;;;;;;4972715;28;20069;-91
2021/01/09 08:35:08;;;;;;;15.95;5.07;;;0.30;99.90;;;;;;4976483;28;20481;-91
2021/01/09 08:37:34;;;;;;;13.32;5.25;;;0.30;99.90;;;;;;4971840;28;20065;-90
2021/01/09 08:40:17;;;;;;;6.55;5.03;;;0.40;99.90;;;;;;4973625;28;20066;-91
2021/01/09 08:43:06;;;;;;;6.20;4.45;;;0.50;99.90;;;;;;4973220;28;20039;-91
2021/01/09 08:45:43;;;;;;;10.20;4.88;;;0.50;99.90;;;;;;4965123;28;20042;-91
2021/01/09 08:48:17;;;;;;;9.90;5.35;;;0.70;99.90;;;;;;4969004;28;20495;-92
2021/01/09 08:51:00;;;;;;;10.55;5.53;;;0.80;99.90;;;;;;4959587;28;20501;-92
2021/01/09 08:53:31;;;;;;;15.27;7.70;;;0.90;99.90;;;;;;4968575;28;20035;-92
2021/01/09 08:56:01;;;;;;;;;;;0.90;99.90;;;;;;4974194;28;20046;-90
2021/01/09 08:58:30;;;;;;;13.27;9.02;;;0.90;99.90;;;;;;4973540;28;19922;-91
2021/01/09 09:00:57;;;;;;;17.15;9.20;;;0.90;99.90;;;;;;4971794;28;20051;-91
2021/01/09 09:03:24;;;;;;;20.33;8.95;;;1.00;99.90;;;;;;4990298;28;20050;-92
2021/01/09 09:05:51;;;;;;;16.08;8.65;;;0.90;99.90;;;;;;4972247;28;20045;-91
2021/01/09 09:08:18;;;;;;;12.13;7.38;;;0.90;99.90;;;;;;4988125;28;20058;-91
2021/01/09 09:10:46;;;;;;;23.95;8.00;;;1.00;99.90;;;;;;4967951;28;20046;-91
2021/01/09 09:13:23;;;;;;;12.55;4.78;;;1.10;99.90;;;;;;4973601;28;20786;-91
2021/01/09 09:15:50;;;;;;;9.63;5.10;;;1.30;99.90;;;;;;4968181;28;20053;-91
2021/01/09 09:18:17;;;;;;;15.75;5.47;;;1.40;99.90;;;;;;4967942;28;20046;-90
2021/01/09 09:20:52;;;;;;;14.02;4.63;;;1.40;99.90;;;;;;4962530;28;20074;-89
2021/01/09 09:23:23;;;;;;;15.52;5.95;;;1.50;99.90;;;;;;4985257;28;20053;-90
2021/01/09 09:26:08;;;;;;;13.18;4.90;;;1.40;99.90;;;;;;4966448;28;20609;-90
2021/01/09 09:28:49;;;;;;;13.15;6.03;;;1.30;99.90;;;;;;4973292;28;20452;-90
2021/01/09 09:31:24;;;;;;;9.77;4.72;;;1.30;99.90;;;;;;4979018;28;20039;-90
2021/01/09 09:34:04;;;;;;;16.08;4.97;;;1.40;99.90;;;;;;4970312;28;20047;-89
2021/01/09 09:36:36;;;;;;;4.20;3.50;;;1.40;99.90;;;;;;4978203;28;20091;-91
2021/01/09 09:39:13;;;;;;;12.68;4.22;;;1.40;99.90;;;;;;4975905;28;20054;-90
2021/01/09 09:41:55;;;;;;;4.95;3.78;;;1.40;99.90;;;;;;4972849;28;20496;-90
2021/01/09 09:44:42;;;;;;;7.25;3.80;;;1.50;99.90;;;;;;4970667;28;20046;-90
2021/01/09 09:47:25;;;;;;;9.35;4.18;;;1.50;99.90;;;;;;4969458;28;20241;-90
2021/01/09 09:49:51;;;;;;;5.03;4.03;;;1.70;99.90;;;;;;4975544;28;20046;-90
2021/01/09 09:52:19;;;;;;;5.38;3.55;;;1.70;99.90;;;;;;4972496;28;20057;-91
2021/01/09 09:54:45;;;;;;;12.68;4.07;;;1.80;99.90;;;;;;4982887;28;20400;-90
2021/01/09 09:57:23;;;;;;;13.77;4.25;;;1.90;99.90;;;;;;4978113;28;20493;-90
2021/01/09 10:00:01;;;;;;;8.90;4.32;;;1.90;99.90;;;;;;4972797;28;20045;-90
2021/01/09 10:02:27;;;;;;;7.43;3.85;;;2.00;99.90;;;;;;4972655;28;20034;-90
2021/01/09 10:04:53;;;;;;;8.63;4.75;;;2.00;99.90;;;;;;4974364;28;20034;-93
2021/01/09 10:07:23;;;;;;;9.93;3.67;;;2.10;99.90;;;;;;4964858;28;20493;-93
2021/01/09 10:09:49;;;;;;;6.00;3.72;;;2.10;99.90;;;;;;4961267;28;20130;-91
2021/01/09 10:12:15;;;;;;;6.22;4.40;;;2.20;99.90;;;;;;4969631;28;20050;-91
2021/01/09 10:14:41;;;;;;;6.45;4.32;;;2.30;99.90;;;;;;4981979;28;20109;-93
2021/01/09 10:17:13;;;;;;;6.68;3.45;;;2.30;99.90;;;;;;4963798;28;20081;-92
2021/01/09 10:19:39;;;;;;;5.32;3.45;;;2.40;99.90;;;;;;4998343;28;20488;-91
2021/01/09 10:22:08;;;;;;;3.15;2.85;;;2.60;99.90;;;;;;4987453;28;20085;-93
2021/01/09 10:24:34;;;;;;;5.22;3.10;;;2.70;99.90;;;;;;4984930;28;20039;-89
2021/01/09 10:27:01;;;;;;;3.70;3.40;;;2.60;99.90;;;;;;4968765;28;20062;-90
2021/01/09 10:29:27;;;;;;;8.18;3.85;;;2.60;99.90;;;;;;4967094;28;20046;-90
2021/01/09 10:31:54;;;;;;;5.28;3.53;;;2.60;99.90;;;;;;4993533;28;20052;-90
2021/01/09 10:34:20;;;;;;;6.95;3.03;;;2.60;99.90;;;;;;4981862;28;20118;-90
2021/01/09 10:36:45;;;;;;;7.97;3.75;;;2.70;99.90;;;;;;4988590;28;20054;-90
2021/01/09 10:39:11;;;;;;;3.70;2.78;;;2.70;99.90;;;;;;4996683;28;20101;-89
2021/01/09 10:41:37;;;;;;;8.93;4.03;;;2.80;99.90;;;;;;4978803;28;20457;-89
2021/01/09 10:44:06;;;;;;;7.93;3.70;;;2.80;99.90;;;;;;5006270;28;20057;-89
2021/01/09 10:46:33;;;;;;;5.93;3.17;;;2.80;99.90;;;;;;4971614;28;20416;-88
2021/01/09 10:48:58;;;;;;;6.72;2.72;;;2.80;99.90;;;;;;4972903;28;20119;-89
2021/01/09 10:51:29;;;;;;;3.75;2.55;;;2.80;99.90;;;;;;4953036;28;20165;-89
2021/01/09 10:53:55;;;;;;;8.77;2.72;;;2.80;99.90;;;;;;4968917;28;20392;-89
2021/01/09 10:56:21;;;;;;;2.85;2.30;;;2.80;99.90;;;;;;4973966;28;20050;-90
2021/01/09 10:58:47;;;;;;;4.07;2.20;;;2.70;99.90;;;;;;4955349;28;20051;-89
2021/01/09 11:01:13;;;;;;;4.88;2.60;;;2.60;99.90;;;;;;4955546;28;20050;-89
2021/01/09 11:03:41;;;;;;;9.40;3.03;;;2.50;99.90;;;;;;4966773;28;20054;-89
2021/01/09 11:06:07;;;;;;;7.00;2.95;;;2.50;99.90;;;;;;4990823;28;20396;-89
2021/01/09 11:08:32;;;;;;;6.25;3.13;;;2.50;99.90;;;;;;4983902;28;20042;-90
2021/01/09 11:10:58;;;;;;;4.93;3.33;;;2.50;99.90;;;;;;4971257;28;20642;-91
2021/01/09 11:13:24;;;;;;;5.00;3.15;;;2.50;99.90;;;;;;4967567;28;20500;-90
2021/01/09 11:15:53;;;;;;;5.28;3.38;;;2.50;99.90;;;;;;4955563;28;20046;-93
2021/01/09 11:18:19;;;;;;;7.35;3.75;;;2.50;99.90;;;;;;4973418;28;20041;-91
2021/01/09 11:20:50;;;;;;;10.18;3.55;;;2.60;99.90;;;;;;4970586;28;20070;-90
2021/01/09 11:23:17;;;;;;;12.13;4.10;;;2.70;99.90;;;;;;4969656;28;20054;-89
2021/01/09 11:25:44;;;;;;;14.55;4.10;;;2.80;99.90;;;;;;4952425;28;20043;-91
2021/01/09 11:28:10;;;;;;;7.97;4.13;;;2.80;99.90;;;;;;4966051;28;20049;-90
2021/01/09 11:30:36;;;;;;;8.80;4.35;;;2.80;99.90;;;;;;4964390;28;20385;-87
2021/01/09 11:33:03;;;;;;;9.45;4.18;;;2.90;99.90;;;;;;4934283;28;20110;-88
2021/01/09 11:35:33;;;;;;;9.15;4.15;;;2.80;99.90;;;;;;4950326;28;20039;-90
2021/01/09 11:37:59;;;;;;;8.13;4.45;;;2.80;99.90;;;;;;4961760;28;20142;-91
2021/01/09 11:40:26;;;;;;;13.50;4.93;;;2.80;99.90;;;;;;4970039;28;20150;-91
2021/01/09 11:42:52;;;;;;;8.73;4.40;;;2.70;99.90;;;;;;4953834;28;20047;-90
2021/01/09 11:45:18;;;;;;;8.23;4.28;;;2.80;99.90;;;;;;4970286;28;20050;-91
2021/01/09 11:47:44;;;;;;;10.68;3.95;;;2.90;99.90;;;;;;4971451;28;20038;-90
2021/01/09 11:50:11;;;;;;;11.63;4.10;;;2.80;99.90;;;;;;4963160;28;20137;-90
2021/01/09 11:52:37;;;;;;;9.00;4.20;;;2.90;99.90;;;;;;4966112;28;20052;-93
2021/01/09 11:55:05;;;;;;;9.57;4.15;;;3.00;99.90;;;;;;4958099;28;20038;-90
2021/01/09 11:57:31;;;;;;;9.45;4.10;;;3.00;99.90;;;;;;4957981;28;20039;-90
2021/01/09 11:59:57;;;;;;;6.97;3.10;;;3.10;99.90;;;;;;4950720;28;20084;-91
2021/01/09 12:02:22;;;;;;;5.63;3.13;;;3.20;99.90;;;;;;4973165;28;20403;-91
2021/01/09 12:04:48;;;;;;;7.85;2.65;;;3.30;99.90;;;;;;4989274;28;20480;-91
2021/01/09 12:07:14;;;;;;;7.80;2.33;;;3.30;99.90;;;;;;4962151;28;20594;-94
2021/01/09 12:09:40;;;;;;;6.25;1.75;;;3.40;99.90;;;;;;4990983;28;20508;-93
2021/01/09 12:12:06;;;;;;;6.47;1.77;;;3.30;99.90;;;;;;4970484;28;20040;-93
2021/01/09 12:14:33;;;;;;;4.75;1.80;;;3.40;99.90;;;;;;4971653;28;20035;-92
2021/01/09 12:17:02;;;;;;;5.32;1.60;;;3.50;99.90;;;;;;4953858;28;20042;-91
2021/01/09 12:19:28;;;;;;;3.30;1.70;;;3.50;99.90;;;;;;4969047;28;20047;-91
2021/01/09 12:21:57;;;;;;;6.15;1.95;;;3.50;99.90;;;;;;4979657;28;20412;-91
2021/01/09 12:24:23;;;;;;;6.53;1.10;;;3.50;99.90;;;;;;4981338;28;20043;-92
2021/01/09 12:26:53;;;;;;;2.83;1.00;;;3.60;99.90;;;;;;4961563;28;20050;-90
2021/01/09 12:29:20;;;;;;;1.10;1.00;;;3.70;99.90;;;;;;4976268;28;20034;-91
2021/01/09 12:31:46;;;;;;;4.07;2.33;;;3.80;99.90;;;;;;4966544;28;20048;-91
2021/01/09 12:34:13;;;;;;;6.85;2.28;;;4.00;99.90;;;;;;4965551;28;20396;-92
2021/01/09 12:36:39;;;;;;;5.47;2.55;;;4.10;99.90;;;;;;4953159;28;20055;-92
2021/01/09 12:39:06;;;;;;;5.50;2.08;;;4.20;99.90;;;;;;4969132;28;20138;-90
2021/01/09 12:41:36;;;;;;;6.55;1.98;;;4.30;99.90;;;;;;4969466;28;20404;-91
2021/01/09 12:44:08;;;;;;;9.15;1.80;;;4.30;99.90;;;;;;4953363;28;20504;-91
2021/01/09 12:46:45;;;;;;;3.65;1.70;;;4.30;99.90;;;;;;4968352;28;20154;-91
2021/01/09 12:49:20;;;;;;;5.43;1.90;;;4.30;99.90;;;;;;4968283;28;20042;-91
2021/01/09 12:51:47;;;;;;;7.38;1.70;;;4.30;99.90;;;;;;4968880;28;20641;-91
2021/01/09 12:54:13;;;;;;;7.10;2.10;;;4.40;99.90;;;;;;4952729;28;20046;-90
2021/01/09 12:56:40;;;;;;;3.13;1.95;;;4.50;99.90;;;;;;4967968;28;20039;-92
2021/01/09 12:59:10;;;;;;;6.35;1.83;;;4.50;99.90;;;;;;4964913;28;20054;-91
2021/01/09 13:01:38;;;;;;;6.97;2.30;;;4.60;99.90;;;;;;4959400;28;20054;-92